sensor_id;sensor_type;location;lat;lon;timestamp;temperature;humidity
22779;DHT22;11556;51.194;3.800;2022-10-16T00:01:23;15.40;99.90
22779;DHT22;11556;51.194;3.800;2022-10-16T00:03:49;15.30;99.90
22779;DHT22;11556;51.194;3.800;2022-10-16T00:06:17;15.40;99.90
22779;DHT22;11556;51.194;3.800;2022-10-16T00:08:44;15.40;99.90
22779;DHT22;11556;51.194;3.800;2022-10-16T00:11:16;15.30;99.90
22779;DHT22;11556;51.194;3.800;2022-10-16T00:13:43;15.30;99.90
22779;DHT22;11556;51.194;3.800;2022-10-16T00:16:10;15.20;99.90
22779;DHT22;11556;51.194;3.800;2022-10-16T00:18:36;15.20;99.90
22779;DHT22;11556;51.194;3.800;2022-10-16T00:21:12;15.20;99.90
22779;DHT22;11556;51.194;3.800;2022-10-16T00:23:39;15.20;99.90
22779;DHT22;11556;51.194;3.800;2022-10-16T00:26:07;15.20;99.90
22779;DHT22;11556;51.194;3.800;2022-10-16T00:28:34;15.10;99.90
22779;DHT22;11556;51.194;3.800;2022-10-16T00:31:03;15.10;99.90
22779;DHT22;11556;51.194;3.800;2022-10-16T00:33:29;15.00;99.90
22779;DHT22;11556;51.194;3.800;2022-10-16T00:35:58;14.90;99.90
22779;DHT22;11556;51.194;3.800;2022-10-16T00:38:24;14.90;99.90
22779;DHT22;11556;51.194;3.800;2022-10-16T00:40:49;14.90;99.90
22779;DHT22;11556;51.194;3.800;2022-10-16T00:46:00;15.00;99.90
22779;DHT22;11556;51.194;3.800;2022-10-16T00:48:27;15.00;99.90
22779;DHT22;11556;51.194;3.800;2022-10-16T00:50:53;15.00;99.90
22779;DHT22;11556;51.194;3.800;2022-10-16T00:53:19;14.90;99.90
22779;DHT22;11556;51.194;3.800;2022-10-16T00:55:45;14.90;99.90
22779;DHT22;11556;51.194;3.800;2022-10-16T00:58:11;14.70;99.90
22779;DHT22;11556;51.194;3.800;2022-10-16T01:00:37;14.70;99.90
22779;DHT22;11556;51.194;3.800;2022-10-16T01:03:21;14.60;99.90
22779;DHT22;11556;51.194;3.800;2022-10-16T01:05:51;14.50;99.90
22779;DHT22;11556;51.194;3.800;2022-10-16T01:09:13;14.50;99.90
22779;DHT22;11556;51.194;3.800;2022-10-16T01:12:23;14.50;99.90
22779;DHT22;11556;51.194;3.800;2022-10-16T01:14:44;14.50;99.90
22779;DHT22;11556;51.194;3.800;2022-10-16T01:22:54;14.60;99.90
22779;DHT22;11556;51.194;3.800;2022-10-16T01:25:46;14.70;99.90
22779;DHT22;11556;51.194;3.800;2022-10-16T01:28:15;14.60;99.90
22779;DHT22;11556;51.194;3.800;2022-10-16T01:30:44;14.70;99.90
22779;DHT22;11556;51.194;3.800;2022-10-16T01:33:16;14.70;99.90
22779;DHT22;11556;51.194;3.800;2022-10-16T01:35:47;14.70;99.90
22779;DHT22;11556;51.194;3.800;2022-10-16T01:38:16;14.70;99.90
22779;DHT22;11556;51.194;3.800;2022-10-16T01:40:47;14.70;99.90
22779;DHT22;11556;51.194;3.800;2022-10-16T01:43:28;14.80;99.90
22779;DHT22;11556;51.194;3.800;2022-10-16T01:45:56;14.70;99.90
22779;DHT22;11556;51.194;3.800;2022-10-16T01:48:23;14.70;99.90
22779;DHT22;11556;51.194;3.800;2022-10-16T01:50:57;14.60;99.90
22779;DHT22;11556;51.194;3.800;2022-10-16T01:53:25;14.60;99.90
22779;DHT22;11556;51.194;3.800;2022-10-16T01:55:52;14.60;99.90
22779;DHT22;11556;51.194;3.800;2022-10-16T01:58:20;14.50;99.90
22779;DHT22;11556;51.194;3.800;2022-10-16T02:00:47;14.50;99.90
22779;DHT22;11556;51.194;3.800;2022-10-16T02:03:16;14.40;99.90
22779;DHT22;11556;51.194;3.800;2022-10-16T02:05:49;14.40;99.90
22779;DHT22;11556;51.194;3.800;2022-10-16T02:08:16;14.50;99.90
22779;DHT22;11556;51.194;3.800;2022-10-16T02:10:42;14.40;99.90
22779;DHT22;11556;51.194;3.800;2022-10-16T02:13:19;14.50;99.90
22779;DHT22;11556;51.194;3.800;2022-10-16T02:15:47;14.60;99.90
22779;DHT22;11556;51.194;3.800;2022-10-16T02:18:13;14.50;99.90
22779;DHT22;11556;51.194;3.800;2022-10-16T02:26:01;14.40;99.90
22779;DHT22;11556;51.194;3.800;2022-10-16T02:28:34;14.30;99.90
22779;DHT22;11556;51.194;3.800;2022-10-16T02:31:04;14.40;99.90
22779;DHT22;11556;51.194;3.800;2022-10-16T02:33:31;14.40;99.90
22779;DHT22;11556;51.194;3.800;2022-10-16T02:35:57;14.40;99.90
22779;DHT22;11556;51.194;3.800;2022-10-16T02:38:24;14.30;99.90
22779;DHT22;11556;51.194;3.800;2022-10-16T02:40:51;14.30;99.90
22779;DHT22;11556;51.194;3.800;2022-10-16T02:43:17;14.30;99.90
22779;DHT22;11556;51.194;3.800;2022-10-16T02:45:43;14.40;99.90
22779;DHT22;11556;51.194;3.800;2022-10-16T02:48:09;14.30;99.90
22779;DHT22;11556;51.194;3.800;2022-10-16T02:50:35;14.30;99.90
22779;DHT22;11556;51.194;3.800;2022-10-16T02:53:01;14.20;99.90
22779;DHT22;11556;51.194;3.800;2022-10-16T02:55:26;14.20;99.90
22779;DHT22;11556;51.194;3.800;2022-10-16T02:57:53;14.10;99.90
22779;DHT22;11556;51.194;3.800;2022-10-16T03:00:19;14.10;99.90
22779;DHT22;11556;51.194;3.800;2022-10-16T03:02:45;14.20;99.90
22779;DHT22;11556;51.194;3.800;2022-10-16T03:05:12;14.10;99.90
22779;DHT22;11556;51.194;3.800;2022-10-16T03:07:38;14.00;99.90
22779;DHT22;11556;51.194;3.800;2022-10-16T03:10:04;14.00;99.90
22779;DHT22;11556;51.194;3.800;2022-10-16T03:12:30;13.90;99.90
22779;DHT22;11556;51.194;3.800;2022-10-16T03:14:56;13.90;99.90
22779;DHT22;11556;51.194;3.800;2022-10-16T03:17:22;13.90;99.90
22779;DHT22;11556;51.194;3.800;2022-10-16T03:19:48;13.90;99.90
22779;DHT22;11556;51.194;3.800;2022-10-16T03:22:13;14.00;99.90
22779;DHT22;11556;51.194;3.800;2022-10-16T03:24:39;14.00;99.90
22779;DHT22;11556;51.194;3.800;2022-10-16T03:27:05;13.90;99.90
22779;DHT22;11556;51.194;3.800;2022-10-16T03:29:30;14.00;99.90
22779;DHT22;11556;51.194;3.800;2022-10-16T03:31:57;13.90;99.90
22779;DHT22;11556;51.194;3.800;2022-10-16T03:34:23;13.90;99.90
22779;DHT22;11556;51.194;3.800;2022-10-16T03:36:48;13.90;99.90
22779;DHT22;11556;51.194;3.800;2022-10-16T03:39:14;14.00;99.90
22779;DHT22;11556;51.194;3.800;2022-10-16T03:41:40;14.10;99.90
22779;DHT22;11556;51.194;3.800;2022-10-16T03:44:05;14.00;99.90
22779;DHT22;11556;51.194;3.800;2022-10-16T03:46:31;14.00;99.90
22779;DHT22;11556;51.194;3.800;2022-10-16T03:48:56;13.90;99.90
22779;DHT22;11556;51.194;3.800;2022-10-16T03:51:22;13.90;99.90
22779;DHT22;11556;51.194;3.800;2022-10-16T03:53:48;13.80;99.90
22779;DHT22;11556;51.194;3.800;2022-10-16T03:56:13;13.90;99.90
22779;DHT22;11556;51.194;3.800;2022-10-16T03:58:39;13.90;99.90
22779;DHT22;11556;51.194;3.800;2022-10-16T04:01:05;14.00;99.90
22779;DHT22;11556;51.194;3.800;2022-10-16T04:03:30;13.90;99.90
22779;DHT22;11556;51.194;3.800;2022-10-16T04:05:56;14.00;99.90
22779;DHT22;11556;51.194;3.800;2022-10-16T04:08:22;14.00;99.90
22779;DHT22;11556;51.194;3.800;2022-10-16T04:10:47;13.90;99.90
22779;DHT22;11556;51.194;3.800;2022-10-16T04:13:13;13.90;99.90
22779;DHT22;11556;51.194;3.800;2022-10-16T04:15:39;13.90;99.90
22779;DHT22;11556;51.194;3.800;2022-10-16T04:18:05;13.80;99.90
22779;DHT22;11556;51.194;3.800;2022-10-16T04:20:31;13.80;99.90
22779;DHT22;11556;51.194;3.800;2022-10-16T04:22:57;13.80;99.90
22779;DHT22;11556;51.194;3.800;2022-10-16T04:25:22;13.80;99.90
22779;DHT22;11556;51.194;3.800;2022-10-16T04:27:48;13.80;99.90
22779;DHT22;11556;51.194;3.800;2022-10-16T04:30:14;13.80;99.90
22779;DHT22;11556;51.194;3.800;2022-10-16T04:32:40;13.80;99.90
22779;DHT22;11556;51.194;3.800;2022-10-16T04:35:06;13.80;99.90
22779;DHT22;11556;51.194;3.800;2022-10-16T04:37:32;13.70;99.90
22779;DHT22;11556;51.194;3.800;2022-10-16T04:39:57;13.70;99.90
22779;DHT22;11556;51.194;3.800;2022-10-16T04:42:23;13.80;99.90
22779;DHT22;11556;51.194;3.800;2022-10-16T04:44:48;13.70;99.90
22779;DHT22;11556;51.194;3.800;2022-10-16T04:47:14;13.70;99.90
22779;DHT22;11556;51.194;3.800;2022-10-16T04:49:40;13.70;99.90
22779;DHT22;11556;51.194;3.800;2022-10-16T04:52:05;13.70;99.90
22779;DHT22;11556;51.194;3.800;2022-10-16T04:54:31;13.70;99.90
22779;DHT22;11556;51.194;3.800;2022-10-16T04:56:57;13.70;99.90
22779;DHT22;11556;51.194;3.800;2022-10-16T04:59:23;13.70;99.90
22779;DHT22;11556;51.194;3.800;2022-10-16T05:01:49;13.70;99.90
22779;DHT22;11556;51.194;3.800;2022-10-16T05:04:15;13.70;99.90
22779;DHT22;11556;51.194;3.800;2022-10-16T05:06:41;13.70;99.90
22779;DHT22;11556;51.194;3.800;2022-10-16T05:09:07;13.70;99.90
22779;DHT22;11556;51.194;3.800;2022-10-16T05:11:34;13.50;99.90
22779;DHT22;11556;51.194;3.800;2022-10-16T05:14:00;13.60;99.90
22779;DHT22;11556;51.194;3.800;2022-10-16T05:16:26;13.60;99.90
22779;DHT22;11556;51.194;3.800;2022-10-16T05:18:52;13.60;99.90
22779;DHT22;11556;51.194;3.800;2022-10-16T05:21:17;13.70;99.90
22779;DHT22;11556;51.194;3.800;2022-10-16T05:23:43;13.70;99.90
22779;DHT22;11556;51.194;3.800;2022-10-16T05:26:09;13.80;99.90
22779;DHT22;11556;51.194;3.800;2022-10-16T05:28:34;13.80;99.90
22779;DHT22;11556;51.194;3.800;2022-10-16T05:31:04;13.90;99.90
22779;DHT22;11556;51.194;3.800;2022-10-16T05:33:30;14.00;99.90
22779;DHT22;11556;51.194;3.800;2022-10-16T05:35:56;13.90;99.90
22779;DHT22;11556;51.194;3.800;2022-10-16T05:38:21;13.90;99.90
22779;DHT22;11556;51.194;3.800;2022-10-16T05:40:51;14.00;99.90
22779;DHT22;11556;51.194;3.800;2022-10-16T05:43:18;14.00;99.90
22779;DHT22;11556;51.194;3.800;2022-10-16T05:45:43;14.00;99.90
22779;DHT22;11556;51.194;3.800;2022-10-16T05:48:09;14.00;99.90
22779;DHT22;11556;51.194;3.800;2022-10-16T05:50:34;14.00;99.90
22779;DHT22;11556;51.194;3.800;2022-10-16T05:53:00;14.00;99.90
22779;DHT22;11556;51.194;3.800;2022-10-16T05:55:25;13.90;99.90
22779;DHT22;11556;51.194;3.800;2022-10-16T05:57:54;13.80;99.90
22779;DHT22;11556;51.194;3.800;2022-10-16T06:00:20;13.80;99.90
22779;DHT22;11556;51.194;3.800;2022-10-16T06:02:45;13.70;99.90
22779;DHT22;11556;51.194;3.800;2022-10-16T06:05:11;13.70;99.90
22779;DHT22;11556;51.194;3.800;2022-10-16T06:07:36;13.60;99.90
22779;DHT22;11556;51.194;3.800;2022-10-16T06:10:03;13.60;99.90
22779;DHT22;11556;51.194;3.800;2022-10-16T06:12:29;13.50;99.90
22779;DHT22;11556;51.194;3.800;2022-10-16T06:14:55;13.60;99.90
22779;DHT22;11556;51.194;3.800;2022-10-16T06:17:20;13.50;99.90
22779;DHT22;11556;51.194;3.800;2022-10-16T06:19:46;13.60;99.90
22779;DHT22;11556;51.194;3.800;2022-10-16T06:22:12;13.70;99.90
22779;DHT22;11556;51.194;3.800;2022-10-16T06:24:37;13.70;99.90
22779;DHT22;11556;51.194;3.800;2022-10-16T06:27:04;13.60;99.90
22779;DHT22;11556;51.194;3.800;2022-10-16T06:29:30;13.80;99.90
22779;DHT22;11556;51.194;3.800;2022-10-16T06:31:55;13.80;99.90
22779;DHT22;11556;51.194;3.800;2022-10-16T06:34:21;13.90;99.90
22779;DHT22;11556;51.194;3.800;2022-10-16T06:36:46;14.00;99.90
22779;DHT22;11556;51.194;3.800;2022-10-16T06:39:12;14.20;99.90
22779;DHT22;11556;51.194;3.800;2022-10-16T06:41:37;14.30;99.90
22779;DHT22;11556;51.194;3.800;2022-10-16T06:44:07;14.50;99.90
22779;DHT22;11556;51.194;3.800;2022-10-16T06:46:35;14.70;99.90
22779;DHT22;11556;51.194;3.800;2022-10-16T06:49:00;14.80;99.90
22779;DHT22;11556;51.194;3.800;2022-10-16T06:51:26;14.90;99.90
22779;DHT22;11556;51.194;3.800;2022-10-16T06:53:54;14.90;99.90
22779;DHT22;11556;51.194;3.800;2022-10-16T06:56:22;14.90;99.90
22779;DHT22;11556;51.194;3.800;2022-10-16T06:58:51;14.90;99.90
22779;DHT22;11556;51.194;3.800;2022-10-16T07:01:19;14.90;99.90
22779;DHT22;11556;51.194;3.800;2022-10-16T07:03:46;14.90;99.90
22779;DHT22;11556;51.194;3.800;2022-10-16T07:06:17;14.90;99.90
22779;DHT22;11556;51.194;3.800;2022-10-16T07:08:44;15.10;99.90
22779;DHT22;11556;51.194;3.800;2022-10-16T07:11:13;15.20;99.90
22779;DHT22;11556;51.194;3.800;2022-10-16T07:13:40;15.20;99.90
22779;DHT22;11556;51.194;3.800;2022-10-16T07:16:12;15.10;99.90
22779;DHT22;11556;51.194;3.800;2022-10-16T07:18:39;15.20;99.90
22779;DHT22;11556;51.194;3.800;2022-10-16T07:21:10;15.20;99.90
22779;DHT22;11556;51.194;3.800;2022-10-16T07:23:37;15.40;99.90
22779;DHT22;11556;51.194;3.800;2022-10-16T07:26:03;15.60;99.90
22779;DHT22;11556;51.194;3.800;2022-10-16T07:28:29;15.70;99.90
22779;DHT22;11556;51.194;3.800;2022-10-16T07:30:59;16.10;99.90
22779;DHT22;11556;51.194;3.800;2022-10-16T07:33:25;17.00;99.90
22779;DHT22;11556;51.194;3.800;2022-10-16T07:35:53;17.60;99.90
22779;DHT22;11556;51.194;3.800;2022-10-16T07:38:19;17.90;99.90
22779;DHT22;11556;51.194;3.800;2022-10-16T07:40:45;18.50;99.90
22779;DHT22;11556;51.194;3.800;2022-10-16T07:43:11;18.90;99.90
22779;DHT22;11556;51.194;3.800;2022-10-16T07:45:37;19.20;99.90
22779;DHT22;11556;51.194;3.800;2022-10-16T07:48:03;19.50;99.90
22779;DHT22;11556;51.194;3.800;2022-10-16T07:50:29;19.50;99.90
22779;DHT22;11556;51.194;3.800;2022-10-16T07:52:54;19.70;99.90
22779;DHT22;11556;51.194;3.800;2022-10-16T07:55:20;19.90;99.90
22779;DHT22;11556;51.194;3.800;2022-10-16T07:57:45;20.30;99.90
22779;DHT22;11556;51.194;3.800;2022-10-16T08:00:11;20.30;99.90
22779;DHT22;11556;51.194;3.800;2022-10-16T08:02:39;20.50;99.90
22779;DHT22;11556;51.194;3.800;2022-10-16T08:05:06;20.80;99.90
22779;DHT22;11556;51.194;3.800;2022-10-16T08:07:31;21.20;99.90
22779;DHT22;11556;51.194;3.800;2022-10-16T08:09:57;21.40;99.90
22779;DHT22;11556;51.194;3.800;2022-10-16T08:12:24;21.40;99.90
22779;DHT22;11556;51.194;3.800;2022-10-16T08:14:50;21.60;99.90
22779;DHT22;11556;51.194;3.800;2022-10-16T08:17:15;21.60;99.90
22779;DHT22;11556;51.194;3.800;2022-10-16T08:19:47;21.50;99.90
22779;DHT22;11556;51.194;3.800;2022-10-16T08:22:13;21.50;99.90
22779;DHT22;11556;51.194;3.800;2022-10-16T08:24:39;21.40;99.90
22779;DHT22;11556;51.194;3.800;2022-10-16T08:27:05;21.50;99.90
22779;DHT22;11556;51.194;3.800;2022-10-16T08:29:32;21.80;99.90
22779;DHT22;11556;51.194;3.800;2022-10-16T08:31:57;22.10;99.90
22779;DHT22;11556;51.194;3.800;2022-10-16T08:34:23;22.60;99.90
22779;DHT22;11556;51.194;3.800;2022-10-16T08:36:48;22.50;99.90
22779;DHT22;11556;51.194;3.800;2022-10-16T08:39:15;22.10;99.90
22779;DHT22;11556;51.194;3.800;2022-10-16T08:42:01;21.90;99.90
22779;DHT22;11556;51.194;3.800;2022-10-16T08:44:54;22.20;99.90
22779;DHT22;11556;51.194;3.800;2022-10-16T08:47:33;22.20;99.90
22779;DHT22;11556;51.194;3.800;2022-10-16T08:50:08;22.20;99.90
22779;DHT22;11556;51.194;3.800;2022-10-16T08:52:35;22.20;99.90
22779;DHT22;11556;51.194;3.800;2022-10-16T08:55:04;22.10;99.90
22779;DHT22;11556;51.194;3.800;2022-10-16T08:57:30;22.80;99.90
22779;DHT22;11556;51.194;3.800;2022-10-16T09:00:00;23.10;99.90
22779;DHT22;11556;51.194;3.800;2022-10-16T09:05:34;23.40;99.90
22779;DHT22;11556;51.194;3.800;2022-10-16T09:11:26;23.80;99.90
22779;DHT22;11556;51.194;3.800;2022-10-16T09:14:18;23.50;99.90
22779;DHT22;11556;51.194;3.800;2022-10-16T09:17:04;23.20;99.90
22779;DHT22;11556;51.194;3.800;2022-10-16T09:19:46;23.50;99.90
22779;DHT22;11556;51.194;3.800;2022-10-16T09:22:17;23.80;99.90
22779;DHT22;11556;51.194;3.800;2022-10-16T09:24:43;24.10;99.90
22779;DHT22;11556;51.194;3.800;2022-10-16T09:27:13;24.40;99.90
22779;DHT22;11556;51.194;3.800;2022-10-16T09:29:39;24.80;99.90
22779;DHT22;11556;51.194;3.800;2022-10-16T09:32:19;25.10;99.70
22779;DHT22;11556;51.194;3.800;2022-10-16T09:34:50;25.50;98.70
22779;DHT22;11556;51.194;3.800;2022-10-16T09:37:18;25.50;97.60
22779;DHT22;11556;51.194;3.800;2022-10-16T09:39:52;25.10;97.70
22779;DHT22;11556;51.194;3.800;2022-10-16T09:42:20;24.60;98.30
22779;DHT22;11556;51.194;3.800;2022-10-16T09:44:50;24.30;99.60
22779;DHT22;11556;51.194;3.800;2022-10-16T09:47:20;23.80;99.90
22779;DHT22;11556;51.194;3.800;2022-10-16T09:50:13;23.00;99.90
22779;DHT22;11556;51.194;3.800;2022-10-16T09:52:44;22.80;99.90
22779;DHT22;11556;51.194;3.800;2022-10-16T09:55:16;22.90;99.90
22779;DHT22;11556;51.194;3.800;2022-10-16T09:57:51;23.30;99.90
22779;DHT22;11556;51.194;3.800;2022-10-16T10:00:17;23.40;99.90
22779;DHT22;11556;51.194;3.800;2022-10-16T10:02:44;23.50;99.90
22779;DHT22;11556;51.194;3.800;2022-10-16T10:05:29;24.00;99.90
22779;DHT22;11556;51.194;3.800;2022-10-16T10:07:59;23.80;99.90
22779;DHT22;11556;51.194;3.800;2022-10-16T10:10:28;23.40;99.90
22779;DHT22;11556;51.194;3.800;2022-10-16T10:12:55;23.30;99.90
22779;DHT22;11556;51.194;3.800;2022-10-16T10:15:22;22.90;99.90
22779;DHT22;11556;51.194;3.800;2022-10-16T10:17:56;22.80;99.90
22779;DHT22;11556;51.194;3.800;2022-10-16T10:20:29;22.60;99.90
22779;DHT22;11556;51.194;3.800;2022-10-16T10:22:56;22.60;99.90
22779;DHT22;11556;51.194;3.800;2022-10-16T10:31:22;22.10;99.90
22779;DHT22;11556;51.194;3.800;2022-10-16T10:36:38;23.00;99.90
22779;DHT22;11556;51.194;3.800;2022-10-16T10:39:35;23.40;99.90
22779;DHT22;11556;51.194;3.800;2022-10-16T10:42:20;24.00;99.90
22779;DHT22;11556;51.194;3.800;2022-10-16T10:50:26;25.40;99.00
22779;DHT22;11556;51.194;3.800;2022-10-16T10:55:45;26.10;96.10
22779;DHT22;11556;51.194;3.800;2022-10-16T10:59:30;25.70;96.00
22779;DHT22;11556;51.194;3.800;2022-10-16T11:06:50;25.70;96.90
22779;DHT22;11556;51.194;3.800;2022-10-16T11:09:22;26.80;94.10
22779;DHT22;11556;51.194;3.800;2022-10-16T11:11:59;27.30;92.00
22779;DHT22;11556;51.194;3.800;2022-10-16T11:14:31;27.50;90.70
22779;DHT22;11556;51.194;3.800;2022-10-16T11:17:23;27.50;90.80
22779;DHT22;11556;51.194;3.800;2022-10-16T11:22:39;26.40;91.90
22779;DHT22;11556;51.194;3.800;2022-10-16T11:25:28;27.20;90.90
22779;DHT22;11556;51.194;3.800;2022-10-16T11:30:47;28.80;85.30
22779;DHT22;11556;51.194;3.800;2022-10-16T11:33:49;28.80;81.00
22779;DHT22;11556;51.194;3.800;2022-10-16T11:36:26;27.70;83.40
22779;DHT22;11556;51.194;3.800;2022-10-16T11:41:53;27.50;84.20
22779;DHT22;11556;51.194;3.800;2022-10-16T11:49:28;28.90;78.10
22779;DHT22;11556;51.194;3.800;2022-10-16T11:52:01;27.90;80.10
22779;DHT22;11556;51.194;3.800;2022-10-16T11:54:54;28.30;81.20
22779;DHT22;11556;51.194;3.800;2022-10-16T11:57:24;27.40;80.50
22779;DHT22;11556;51.194;3.800;2022-10-16T12:05:25;25.90;87.30
22779;DHT22;11556;51.194;3.800;2022-10-16T12:08:09;26.60;86.20
22779;DHT22;11556;51.194;3.800;2022-10-16T12:10:37;28.20;81.60
22779;DHT22;11556;51.194;3.800;2022-10-16T12:13:40;29.60;75.80
22779;DHT22;11556;51.194;3.800;2022-10-16T12:18:44;32.00;65.70
22779;DHT22;11556;51.194;3.800;2022-10-16T12:21:11;32.10;64.50
22779;DHT22;11556;51.194;3.800;2022-10-16T12:23:49;30.60;64.30
22779;DHT22;11556;51.194;3.800;2022-10-16T12:26:31;28.80;67.70
22779;DHT22;11556;51.194;3.800;2022-10-16T12:31:44;26.30;75.40
22779;DHT22;11556;51.194;3.800;2022-10-16T12:36:47;25.20;81.60
22779;DHT22;11556;51.194;3.800;2022-10-16T12:39:22;25.10;83.60
22779;DHT22;11556;51.194;3.800;2022-10-16T12:41:48;25.00;83.40
22779;DHT22;11556;51.194;3.800;2022-10-16T12:44:24;25.40;83.50
22779;DHT22;11556;51.194;3.800;2022-10-16T12:46:51;26.70;81.40
22779;DHT22;11556;51.194;3.800;2022-10-16T12:49:29;27.90;77.00
22779;DHT22;11556;51.194;3.800;2022-10-16T12:51:56;28.10;73.20
22779;DHT22;11556;51.194;3.800;2022-10-16T12:54:30;27.30;75.70
22779;DHT22;11556;51.194;3.800;2022-10-16T13:08:42;26.20;77.50
22779;DHT22;11556;51.194;3.800;2022-10-16T13:17:07;27.90;73.40
22779;DHT22;11556;51.194;3.800;2022-10-16T13:20:11;28.80;71.20
22779;DHT22;11556;51.194;3.800;2022-10-16T13:25:43;28.50;66.60
22779;DHT22;11556;51.194;3.800;2022-10-16T13:28:12;28.00;67.70
22779;DHT22;11556;51.194;3.800;2022-10-16T13:30:43;26.40;69.30
22779;DHT22;11556;51.194;3.800;2022-10-16T13:35:35;25.30;74.10
22779;DHT22;11556;51.194;3.800;2022-10-16T13:38:13;24.80;76.20
22779;DHT22;11556;51.194;3.800;2022-10-16T13:43:21;23.60;85.40
22779;DHT22;11556;51.194;3.800;2022-10-16T13:46:15;23.10;87.50
22779;DHT22;11556;51.194;3.800;2022-10-16T13:48:42;23.00;88.70
22779;DHT22;11556;51.194;3.800;2022-10-16T13:51:18;22.80;90.50
22779;DHT22;11556;51.194;3.800;2022-10-16T13:53:45;23.00;90.20
22779;DHT22;11556;51.194;3.800;2022-10-16T13:56:28;22.50;91.50
22779;DHT22;11556;51.194;3.800;2022-10-16T14:01:40;22.00;93.30
22779;DHT22;11556;51.194;3.800;2022-10-16T14:04:09;21.70;94.40
22779;DHT22;11556;51.194;3.800;2022-10-16T14:06:36;21.40;95.40
22779;DHT22;11556;51.194;3.800;2022-10-16T14:11:32;21.20;97.80
22779;DHT22;11556;51.194;3.800;2022-10-16T14:13:59;21.00;97.80
22779;DHT22;11556;51.194;3.800;2022-10-16T14:16:28;21.00;98.50
22779;DHT22;11556;51.194;3.800;2022-10-16T14:19:04;20.90;99.40
22779;DHT22;11556;51.194;3.800;2022-10-16T14:21:33;20.90;99.50
22779;DHT22;11556;51.194;3.800;2022-10-16T14:23:59;20.70;99.90
22779;DHT22;11556;51.194;3.800;2022-10-16T14:26:28;20.70;99.90
22779;DHT22;11556;51.194;3.800;2022-10-16T14:29:12;20.60;99.90
22779;DHT22;11556;51.194;3.800;2022-10-16T14:31:38;20.60;99.90
22779;DHT22;11556;51.194;3.800;2022-10-16T14:34:32;20.40;99.90
22779;DHT22;11556;51.194;3.800;2022-10-16T14:37:18;20.50;99.90
22779;DHT22;11556;51.194;3.800;2022-10-16T14:39:51;20.40;99.90
22779;DHT22;11556;51.194;3.800;2022-10-16T14:42:19;20.40;99.90
22779;DHT22;11556;51.194;3.800;2022-10-16T14:44:46;20.40;99.90
22779;DHT22;11556;51.194;3.800;2022-10-16T14:47:17;20.30;99.90
22779;DHT22;11556;51.194;3.800;2022-10-16T14:49:47;20.20;99.90
22779;DHT22;11556;51.194;3.800;2022-10-16T14:52:13;20.10;99.90
22779;DHT22;11556;51.194;3.800;2022-10-16T14:54:40;20.10;99.90
22779;DHT22;11556;51.194;3.800;2022-10-16T14:57:06;20.00;99.90
22779;DHT22;11556;51.194;3.800;2022-10-16T14:59:41;19.90;99.90
22779;DHT22;11556;51.194;3.800;2022-10-16T15:02:33;19.90;99.90
22779;DHT22;11556;51.194;3.800;2022-10-16T15:05:18;19.80;99.90
22779;DHT22;11556;51.194;3.800;2022-10-16T15:07:44;19.70;99.90
22779;DHT22;11556;51.194;3.800;2022-10-16T15:10:12;19.60;99.90
22779;DHT22;11556;51.194;3.800;2022-10-16T15:12:38;19.70;99.90
22779;DHT22;11556;51.194;3.800;2022-10-16T15:15:24;19.60;99.90
22779;DHT22;11556;51.194;3.800;2022-10-16T15:17:53;19.50;99.90
22779;DHT22;11556;51.194;3.800;2022-10-16T15:20:22;19.50;99.90
22779;DHT22;11556;51.194;3.800;2022-10-16T15:22:48;19.50;99.90
22779;DHT22;11556;51.194;3.800;2022-10-16T15:25:34;19.50;99.90
22779;DHT22;11556;51.194;3.800;2022-10-16T15:28:01;19.50;99.90
22779;DHT22;11556;51.194;3.800;2022-10-16T15:30:27;19.50;99.90
22779;DHT22;11556;51.194;3.800;2022-10-16T15:32:53;19.50;99.90
22779;DHT22;11556;51.194;3.800;2022-10-16T15:35:19;19.40;99.90
22779;DHT22;11556;51.194;3.800;2022-10-16T15:37:46;19.30;99.90
22779;DHT22;11556;51.194;3.800;2022-10-16T15:40:12;19.20;99.90
22779;DHT22;11556;51.194;3.800;2022-10-16T15:42:38;19.20;99.90
22779;DHT22;11556;51.194;3.800;2022-10-16T15:45:04;19.20;99.90
22779;DHT22;11556;51.194;3.800;2022-10-16T15:47:31;19.10;99.90
22779;DHT22;11556;51.194;3.800;2022-10-16T15:49:57;19.10;99.90
22779;DHT22;11556;51.194;3.800;2022-10-16T15:52:22;19.20;99.90
22779;DHT22;11556;51.194;3.800;2022-10-16T15:54:48;19.30;99.90
22779;DHT22;11556;51.194;3.800;2022-10-16T15:57:14;19.40;99.90
22779;DHT22;11556;51.194;3.800;2022-10-16T15:59:39;19.60;99.90
22779;DHT22;11556;51.194;3.800;2022-10-16T16:02:05;19.50;99.90
22779;DHT22;11556;51.194;3.800;2022-10-16T16:04:30;19.30;99.90
22779;DHT22;11556;51.194;3.800;2022-10-16T16:06:56;19.20;99.90
22779;DHT22;11556;51.194;3.800;2022-10-16T16:09:22;19.00;99.90
22779;DHT22;11556;51.194;3.800;2022-10-16T16:11:48;19.00;99.90
22779;DHT22;11556;51.194;3.800;2022-10-16T16:14:14;19.00;99.90
22779;DHT22;11556;51.194;3.800;2022-10-16T16:16:41;18.90;99.90
22779;DHT22;11556;51.194;3.800;2022-10-16T16:19:07;19.10;99.90
22779;DHT22;11556;51.194;3.800;2022-10-16T16:21:34;19.40;99.90
22779;DHT22;11556;51.194;3.800;2022-10-16T16:23:59;19.30;99.90
22779;DHT22;11556;51.194;3.800;2022-10-16T16:26:27;19.30;99.90
22779;DHT22;11556;51.194;3.800;2022-10-16T16:28:55;19.10;99.90
22779;DHT22;11556;51.194;3.800;2022-10-16T16:31:24;19.00;99.90
22779;DHT22;11556;51.194;3.800;2022-10-16T16:33:50;18.80;99.90
22779;DHT22;11556;51.194;3.800;2022-10-16T16:36:17;18.60;99.90
22779;DHT22;11556;51.194;3.800;2022-10-16T16:38:44;18.40;99.90
22779;DHT22;11556;51.194;3.800;2022-10-16T16:41:21;18.30;99.90
22779;DHT22;11556;51.194;3.800;2022-10-16T16:43:46;18.30;99.90
22779;DHT22;11556;51.194;3.800;2022-10-16T16:46:13;18.40;99.90
22779;DHT22;11556;51.194;3.800;2022-10-16T16:48:39;18.40;99.90
22779;DHT22;11556;51.194;3.800;2022-10-16T16:51:06;18.30;99.90
22779;DHT22;11556;51.194;3.800;2022-10-16T16:53:36;18.30;99.90
22779;DHT22;11556;51.194;3.800;2022-10-16T16:56:03;18.40;99.90
22779;DHT22;11556;51.194;3.800;2022-10-16T16:58:29;18.40;99.90
22779;DHT22;11556;51.194;3.800;2022-10-16T17:00:55;18.40;99.90
22779;DHT22;11556;51.194;3.800;2022-10-16T17:03:22;18.30;99.90
22779;DHT22;11556;51.194;3.800;2022-10-16T17:06:17;18.00;99.90
22779;DHT22;11556;51.194;3.800;2022-10-16T17:08:43;17.90;99.90
22779;DHT22;11556;51.194;3.800;2022-10-16T17:11:20;18.00;99.90
22779;DHT22;11556;51.194;3.800;2022-10-16T17:13:47;18.10;99.90
22779;DHT22;11556;51.194;3.800;2022-10-16T17:16:12;18.00;99.90
22779;DHT22;11556;51.194;3.800;2022-10-16T17:18:38;18.10;99.90
22779;DHT22;11556;51.194;3.800;2022-10-16T17:21:06;18.30;99.90
22779;DHT22;11556;51.194;3.800;2022-10-16T17:23:32;18.40;99.90
22779;DHT22;11556;51.194;3.800;2022-10-16T17:26:11;18.40;99.90